sensor_id;sensor_type;location;lat;lon;timestamp;P1;durP1;ratioP1;P2;durP2;ratioP2
3189;SDS011;1606;51.946;10.558;2023-10-31T00:02:00;13.83;;;8.03;;
3189;SDS011;1606;51.946;10.558;2023-10-31T00:04:29;12.53;;;7.30;;
3189;SDS011;1606;51.946;10.558;2023-10-31T00:06:58;12.03;;;7.43;;
3189;SDS011;1606;51.946;10.558;2023-10-31T00:09:26;15.93;;;8.27;;
3189;SDS011;1606;51.946;10.558;2023-10-31T00:11:54;12.30;;;7.07;;
3189;SDS011;1606;51.946;10.558;2023-10-31T00:14:22;14.07;;;8.20;;
3189;SDS011;1606;51.946;10.558;2023-10-31T00:16:56;14.23;;;8.33;;
3189;SDS011;1606;51.946;10.558;2023-10-31T00:19:25;12.23;;;7.70;;
3189;SDS011;1606;51.946;10.558;2023-10-31T00:21:53;13.50;;;7.80;;
3189;SDS011;1606;51.946;10.558;2023-10-31T00:24:23;13.90;;;8.17;;
3189;SDS011;1606;51.946;10.558;2023-10-31T00:26:51;12.97;;;7.90;;
3189;SDS011;1606;51.946;10.558;2023-10-31T00:29:19;17.70;;;9.53;;
3189;SDS011;1606;51.946;10.558;2023-10-31T00:31:47;14.10;;;8.20;;
3189;SDS011;1606;51.946;10.558;2023-10-31T00:34:15;14.20;;;7.60;;
3189;SDS011;1606;51.946;10.558;2023-10-31T00:36:43;12.13;;;6.70;;
3189;SDS011;1606;51.946;10.558;2023-10-31T00:39:12;13.57;;;8.53;;
3189;SDS011;1606;51.946;10.558;2023-10-31T00:41:44;15.63;;;8.63;;
3189;SDS011;1606;51.946;10.558;2023-10-31T00:44:12;13.90;;;8.13;;
3189;SDS011;1606;51.946;10.558;2023-10-31T00:46:41;12.83;;;7.70;;
3189;SDS011;1606;51.946;10.558;2023-10-31T00:49:10;12.77;;;8.40;;
3189;SDS011;1606;51.946;10.558;2023-10-31T00:51:38;12.70;;;8.93;;
3189;SDS011;1606;51.946;10.558;2023-10-31T00:54:06;13.00;;;8.30;;
3189;SDS011;1606;51.946;10.558;2023-10-31T00:56:34;21.80;;;10.93;;
3189;SDS011;1606;51.946;10.558;2023-10-31T00:59:03;14.27;;;9.60;;
3189;SDS011;1606;51.946;10.558;2023-10-31T01:01:31;18.70;;;10.50;;
3189;SDS011;1606;51.946;10.558;2023-10-31T01:03:59;13.93;;;10.10;;
3189;SDS011;1606;51.946;10.558;2023-10-31T01:06:27;15.30;;;9.40;;
3189;SDS011;1606;51.946;10.558;2023-10-31T01:08:55;17.40;;;10.10;;
3189;SDS011;1606;51.946;10.558;2023-10-31T01:11:24;17.90;;;10.90;;
3189;SDS011;1606;51.946;10.558;2023-10-31T01:13:52;17.70;;;10.93;;
3189;SDS011;1606;51.946;10.558;2023-10-31T01:16:21;17.00;;;10.40;;
3189;SDS011;1606;51.946;10.558;2023-10-31T01:18:50;16.03;;;10.13;;
3189;SDS011;1606;51.946;10.558;2023-10-31T01:21:18;25.50;;;11.53;;
3189;SDS011;1606;51.946;10.558;2023-10-31T01:23:46;13.17;;;9.33;;
3189;SDS011;1606;51.946;10.558;2023-10-31T01:26:14;14.10;;;9.60;;
3189;SDS011;1606;51.946;10.558;2023-10-31T01:28:42;14.37;;;10.67;;
3189;SDS011;1606;51.946;10.558;2023-10-31T01:31:10;17.90;;;11.20;;
3189;SDS011;1606;51.946;10.558;2023-10-31T01:33:42;17.13;;;12.57;;
3189;SDS011;1606;51.946;10.558;2023-10-31T01:36:10;18.30;;;11.70;;
3189;SDS011;1606;51.946;10.558;2023-10-31T01:38:38;16.93;;;10.77;;
3189;SDS011;1606;51.946;10.558;2023-10-31T01:41:07;16.00;;;12.13;;
3189;SDS011;1606;51.946;10.558;2023-10-31T01:43:35;13.57;;;9.90;;
3189;SDS011;1606;51.946;10.558;2023-10-31T01:46:04;16.70;;;9.97;;
3189;SDS011;1606;51.946;10.558;2023-10-31T01:48:32;13.63;;;10.50;;
3189;SDS011;1606;51.946;10.558;2023-10-31T01:51:03;17.83;;;10.83;;
3189;SDS011;1606;51.946;10.558;2023-10-31T01:53:34;13.87;;;9.30;;
3189;SDS011;1606;51.946;10.558;2023-10-31T01:56:04;16.00;;;9.17;;
3189;SDS011;1606;51.946;10.558;2023-10-31T01:58:34;11.53;;;7.67;;
3189;SDS011;1606;51.946;10.558;2023-10-31T02:01:03;11.83;;;7.50;;
3189;SDS011;1606;51.946;10.558;2023-10-31T02:03:32;11.93;;;7.53;;
3189;SDS011;1606;51.946;10.558;2023-10-31T02:06:02;13.63;;;8.07;;
3189;SDS011;1606;51.946;10.558;2023-10-31T02:08:31;13.27;;;7.80;;
3189;SDS011;1606;51.946;10.558;2023-10-31T02:10:59;13.10;;;8.27;;
3189;SDS011;1606;51.946;10.558;2023-10-31T02:13:27;12.80;;;8.03;;
3189;SDS011;1606;51.946;10.558;2023-10-31T02:15:55;12.40;;;8.20;;
3189;SDS011;1606;51.946;10.558;2023-10-31T02:18:23;15.00;;;7.57;;
3189;SDS011;1606;51.946;10.558;2023-10-31T02:20:52;13.43;;;8.53;;
3189;SDS011;1606;51.946;10.558;2023-10-31T02:23:21;14.43;;;9.10;;
3189;SDS011;1606;51.946;10.558;2023-10-31T02:25:49;12.70;;;8.47;;
3189;SDS011;1606;51.946;10.558;2023-10-31T02:28:17;11.10;;;7.83;;
3189;SDS011;1606;51.946;10.558;2023-10-31T02:30:45;12.10;;;8.20;;
3189;SDS011;1606;51.946;10.558;2023-10-31T02:33:13;14.23;;;7.97;;
3189;SDS011;1606;51.946;10.558;2023-10-31T02:35:41;10.80;;;7.33;;
3189;SDS011;1606;51.946;10.558;2023-10-31T02:38:09;11.90;;;6.50;;
3189;SDS011;1606;51.946;10.558;2023-10-31T02:40:40;10.50;;;6.47;;
3189;SDS011;1606;51.946;10.558;2023-10-31T02:43:08;10.17;;;5.80;;
3189;SDS011;1606;51.946;10.558;2023-10-31T02:45:36;10.60;;;6.43;;
3189;SDS011;1606;51.946;10.558;2023-10-31T02:48:04;10.37;;;5.10;;
3189;SDS011;1606;51.946;10.558;2023-10-31T02:50:32;10.70;;;4.93;;
3189;SDS011;1606;51.946;10.558;2023-10-31T02:53:00;8.90;;;5.00;;
3189;SDS011;1606;51.946;10.558;2023-10-31T02:55:28;7.43;;;3.77;;
3189;SDS011;1606;51.946;10.558;2023-10-31T02:57:57;9.90;;;3.63;;
3189;SDS011;1606;51.946;10.558;2023-10-31T03:00:25;6.80;;;2.97;;
3189;SDS011;1606;51.946;10.558;2023-10-31T03:02:53;6.60;;;2.10;;
3189;SDS011;1606;51.946;10.558;2023-10-31T03:05:22;9.67;;;1.80;;
3189;SDS011;1606;51.946;10.558;2023-10-31T03:07:50;6.40;;;2.07;;
3189;SDS011;1606;51.946;10.558;2023-10-31T03:10:19;6.10;;;2.10;;
3189;SDS011;1606;51.946;10.558;2023-10-31T03:12:47;6.40;;;2.30;;
3189;SDS011;1606;51.946;10.558;2023-10-31T03:15:16;6.07;;;2.10;;
3189;SDS011;1606;51.946;10.558;2023-10-31T03:17:44;5.80;;;2.20;;
3189;SDS011;1606;51.946;10.558;2023-10-31T03:20:13;7.90;;;2.23;;
3189;SDS011;1606;51.946;10.558;2023-10-31T03:22:41;6.17;;;2.27;;
3189;SDS011;1606;51.946;10.558;2023-10-31T03:25:09;5.80;;;1.80;;
3189;SDS011;1606;51.946;10.558;2023-10-31T03:27:37;5.80;;;2.13;;
3189;SDS011;1606;51.946;10.558;2023-10-31T03:30:05;5.70;;;1.70;;
3189;SDS011;1606;51.946;10.558;2023-10-31T03:32:35;5.60;;;2.00;;
3189;SDS011;1606;51.946;10.558;2023-10-31T03:35:03;5.33;;;1.53;;
3189;SDS011;1606;51.946;10.558;2023-10-31T03:37:32;5.73;;;1.70;;
3189;SDS011;1606;51.946;10.558;2023-10-31T03:40:00;5.20;;;1.30;;
3189;SDS011;1606;51.946;10.558;2023-10-31T03:42:28;7.13;;;1.70;;
3189;SDS011;1606;51.946;10.558;2023-10-31T03:44:56;5.00;;;1.17;;
3189;SDS011;1606;51.946;10.558;2023-10-31T03:47:24;5.87;;;1.70;;
3189;SDS011;1606;51.946;10.558;2023-10-31T03:49:53;6.30;;;1.60;;
3189;SDS011;1606;51.946;10.558;2023-10-31T03:52:21;6.53;;;1.63;;
3189;SDS011;1606;51.946;10.558;2023-10-31T03:54:49;5.70;;;1.60;;
3189;SDS011;1606;51.946;10.558;2023-10-31T03:57:17;5.40;;;1.30;;
3189;SDS011;1606;51.946;10.558;2023-10-31T03:59:45;5.90;;;1.80;;
3189;SDS011;1606;51.946;10.558;2023-10-31T04:02:13;5.80;;;1.93;;
3189;SDS011;1606;51.946;10.558;2023-10-31T04:04:41;5.90;;;1.97;;
3189;SDS011;1606;51.946;10.558;2023-10-31T04:07:11;5.97;;;1.83;;
3189;SDS011;1606;51.946;10.558;2023-10-31T04:09:39;6.83;;;2.00;;
3189;SDS011;1606;51.946;10.558;2023-10-31T04:12:07;7.10;;;2.20;;
3189;SDS011;1606;51.946;10.558;2023-10-31T04:14:36;5.60;;;2.03;;
3189;SDS011;1606;51.946;10.558;2023-10-31T04:17:05;5.50;;;1.53;;
3189;SDS011;1606;51.946;10.558;2023-10-31T04:19:33;5.33;;;1.73;;
3189;SDS011;1606;51.946;10.558;2023-10-31T04:22:03;5.60;;;1.60;;
3189;SDS011;1606;51.946;10.558;2023-10-31T04:24:33;5.00;;;1.30;;
3189;SDS011;1606;51.946;10.558;2023-10-31T04:27:01;4.70;;;0.90;;
3189;SDS011;1606;51.946;10.558;2023-10-31T04:29:28;4.80;;;1.13;;
3189;SDS011;1606;51.946;10.558;2023-10-31T04:31:56;5.00;;;0.90;;
3189;SDS011;1606;51.946;10.558;2023-10-31T04:34:24;4.70;;;1.20;;
3189;SDS011;1606;51.946;10.558;2023-10-31T04:36:52;5.60;;;1.30;;
3189;SDS011;1606;51.946;10.558;2023-10-31T04:39:20;4.80;;;1.07;;
3189;SDS011;1606;51.946;10.558;2023-10-31T04:41:50;4.63;;;0.80;;
3189;SDS011;1606;51.946;10.558;2023-10-31T04:44:18;4.90;;;0.90;;
3189;SDS011;1606;51.946;10.558;2023-10-31T04:46:46;5.67;;;1.10;;
3189;SDS011;1606;51.946;10.558;2023-10-31T04:49:14;5.10;;;1.27;;
3189;SDS011;1606;51.946;10.558;2023-10-31T04:51:42;4.83;;;1.13;;
3189;SDS011;1606;51.946;10.558;2023-10-31T04:54:10;4.90;;;1.10;;
3189;SDS011;1606;51.946;10.558;2023-10-31T04:56:38;5.93;;;1.10;;
3189;SDS011;1606;51.946;10.558;2023-10-31T04:59:08;5.30;;;1.10;;
3189;SDS011;1606;51.946;10.558;2023-10-31T05:01:36;8.13;;;1.60;;
3189;SDS011;1606;51.946;10.558;2023-10-31T05:04:04;4.70;;;1.00;;
3189;SDS011;1606;51.946;10.558;2023-10-31T05:06:38;5.10;;;1.20;;
3189;SDS011;1606;51.946;10.558;2023-10-31T05:09:07;4.83;;;1.10;;
3189;SDS011;1606;51.946;10.558;2023-10-31T05:11:37;4.80;;;1.10;;
3189;SDS011;1606;51.946;10.558;2023-10-31T05:14:07;4.90;;;1.10;;
3189;SDS011;1606;51.946;10.558;2023-10-31T05:16:41;5.30;;;1.13;;
3189;SDS011;1606;51.946;10.558;2023-10-31T05:19:09;4.80;;;1.20;;
3189;SDS011;1606;51.946;10.558;2023-10-31T05:21:38;4.90;;;1.30;;
3189;SDS011;1606;51.946;10.558;2023-10-31T05:24:06;5.20;;;1.20;;
3189;SDS011;1606;51.946;10.558;2023-10-31T05:26:35;5.17;;;1.30;;
3189;SDS011;1606;51.946;10.558;2023-10-31T05:29:03;5.80;;;1.20;;
3189;SDS011;1606;51.946;10.558;2023-10-31T05:31:32;4.93;;;1.40;;
3189;SDS011;1606;51.946;10.558;2023-10-31T05:34:00;5.47;;;1.27;;
3189;SDS011;1606;51.946;10.558;2023-10-31T05:36:30;4.90;;;1.10;;
3189;SDS011;1606;51.946;10.558;2023-10-31T05:38:58;7.30;;;1.03;;
3189;SDS011;1606;51.946;10.558;2023-10-31T05:41:26;5.10;;;1.20;;
3189;SDS011;1606;51.946;10.558;2023-10-31T05:43:54;4.70;;;1.03;;
3189;SDS011;1606;51.946;10.558;2023-10-31T05:46:22;6.63;;;1.40;;
3189;SDS011;1606;51.946;10.558;2023-10-31T05:48:51;5.40;;;1.40;;
3189;SDS011;1606;51.946;10.558;2023-10-31T05:51:19;5.30;;;1.33;;
3189;SDS011;1606;51.946;10.558;2023-10-31T05:53:47;5.67;;;1.20;;
3189;SDS011;1606;51.946;10.558;2023-10-31T05:56:16;5.40;;;1.27;;
3189;SDS011;1606;51.946;10.558;2023-10-31T05:58:44;5.20;;;1.30;;
3189;SDS011;1606;51.946;10.558;2023-10-31T06:01:12;5.30;;;1.10;;
3189;SDS011;1606;51.946;10.558;2023-10-31T06:03:41;5.00;;;1.30;;
3189;SDS011;1606;51.946;10.558;2023-10-31T06:06:12;5.00;;;1.40;;
3189;SDS011;1606;51.946;10.558;2023-10-31T06:08:40;6.23;;;1.37;;
3189;SDS011;1606;51.946;10.558;2023-10-31T06:11:08;5.87;;;1.70;;
3189;SDS011;1606;51.946;10.558;2023-10-31T06:13:38;6.03;;;1.53;;
3189;SDS011;1606;51.946;10.558;2023-10-31T06:16:07;5.80;;;1.50;;
3189;SDS011;1606;51.946;10.558;2023-10-31T06:18:35;5.83;;;1.93;;
3189;SDS011;1606;51.946;10.558;2023-10-31T06:21:03;5.13;;;1.50;;
3189;SDS011;1606;51.946;10.558;2023-10-31T06:23:32;4.90;;;1.20;;
3189;SDS011;1606;51.946;10.558;2023-10-31T06:26:00;5.33;;;1.53;;
3189;SDS011;1606;51.946;10.558;2023-10-31T06:28:28;6.10;;;1.83;;
3189;SDS011;1606;51.946;10.558;2023-10-31T06:30:56;6.43;;;1.70;;
3189;SDS011;1606;51.946;10.558;2023-10-31T06:33:24;7.43;;;1.60;;
3189;SDS011;1606;51.946;10.558;2023-10-31T06:35:52;5.60;;;1.60;;
3189;SDS011;1606;51.946;10.558;2023-10-31T06:38:20;5.80;;;1.40;;
3189;SDS011;1606;51.946;10.558;2023-10-31T06:40:49;5.47;;;1.70;;
3189;SDS011;1606;51.946;10.558;2023-10-31T06:43:17;8.00;;;1.40;;
3189;SDS011;1606;51.946;10.558;2023-10-31T06:45:45;5.77;;;1.70;;
3189;SDS011;1606;51.946;10.558;2023-10-31T06:48:14;6.63;;;1.57;;
3189;SDS011;1606;51.946;10.558;2023-10-31T06:50:42;5.90;;;1.70;;
3189;SDS011;1606;51.946;10.558;2023-10-31T06:53:10;6.17;;;2.13;;
3189;SDS011;1606;51.946;10.558;2023-10-31T06:55:38;6.20;;;2.63;;
3189;SDS011;1606;51.946;10.558;2023-10-31T06:58:07;6.47;;;2.50;;
3189;SDS011;1606;51.946;10.558;2023-10-31T07:00:35;8.97;;;2.97;;
3189;SDS011;1606;51.946;10.558;2023-10-31T07:03:03;13.03;;;2.07;;
3189;SDS011;1606;51.946;10.558;2023-10-31T07:05:35;6.87;;;2.60;;
3189;SDS011;1606;51.946;10.558;2023-10-31T07:08:04;6.03;;;2.57;;
3189;SDS011;1606;51.946;10.558;2023-10-31T07:10:32;5.40;;;1.87;;
3189;SDS011;1606;51.946;10.558;2023-10-31T07:13:00;8.23;;;2.10;;
3189;SDS011;1606;51.946;10.558;2023-10-31T07:15:29;6.60;;;2.50;;
3189;SDS011;1606;51.946;10.558;2023-10-31T07:17:57;5.50;;;2.30;;
3189;SDS011;1606;51.946;10.558;2023-10-31T07:20:25;6.47;;;2.70;;
3189;SDS011;1606;51.946;10.558;2023-10-31T07:22:55;7.77;;;2.50;;
3189;SDS011;1606;51.946;10.558;2023-10-31T07:25:23;6.07;;;2.30;;
3189;SDS011;1606;51.946;10.558;2023-10-31T07:27:51;5.90;;;2.10;;
3189;SDS011;1606;51.946;10.558;2023-10-31T07:30:19;5.83;;;2.43;;
3189;SDS011;1606;51.946;10.558;2023-10-31T07:32:49;6.60;;;2.73;;
3189;SDS011;1606;51.946;10.558;2023-10-31T07:35:18;5.63;;;2.23;;
3189;SDS011;1606;51.946;10.558;2023-10-31T07:37:48;7.63;;;2.10;;
3189;SDS011;1606;51.946;10.558;2023-10-31T07:40:16;8.57;;;2.13;;
3189;SDS011;1606;51.946;10.558;2023-10-31T07:42:45;6.17;;;1.87;;
3189;SDS011;1606;51.946;10.558;2023-10-31T07:45:13;5.77;;;2.20;;
3189;SDS011;1606;51.946;10.558;2023-10-31T07:47:41;8.00;;;2.00;;
3189;SDS011;1606;51.946;10.558;2023-10-31T07:50:11;6.07;;;2.00;;
3189;SDS011;1606;51.946;10.558;2023-10-31T07:52:39;5.70;;;1.80;;
3189;SDS011;1606;51.946;10.558;2023-10-31T07:55:10;6.10;;;1.73;;
3189;SDS011;1606;51.946;10.558;2023-10-31T07:57:40;5.77;;;1.87;;
3189;SDS011;1606;51.946;10.558;2023-10-31T08:00:09;6.67;;;1.80;;
3189;SDS011;1606;51.946;10.558;2023-10-31T08:02:38;5.83;;;1.80;;
3189;SDS011;1606;51.946;10.558;2023-10-31T08:05:07;5.80;;;2.20;;
3189;SDS011;1606;51.946;10.558;2023-10-31T08:07:38;5.70;;;2.30;;
3189;SDS011;1606;51.946;10.558;2023-10-31T08:10:06;6.20;;;2.10;;
3189;SDS011;1606;51.946;10.558;2023-10-31T08:12:36;5.97;;;2.23;;
3189;SDS011;1606;51.946;10.558;2023-10-31T08:15:06;7.53;;;2.33;;
3189;SDS011;1606;51.946;10.558;2023-10-31T08:17:35;6.90;;;2.40;;
3189;SDS011;1606;51.946;10.558;2023-10-31T08:20:03;6.33;;;1.90;;
3189;SDS011;1606;51.946;10.558;2023-10-31T08:22:32;5.60;;;2.03;;
3189;SDS011;1606;51.946;10.558;2023-10-31T08:25:01;6.90;;;2.40;;
3189;SDS011;1606;51.946;10.558;2023-10-31T08:27:30;5.80;;;2.13;;
3189;SDS011;1606;51.946;10.558;2023-10-31T08:29:58;6.10;;;1.80;;
3189;SDS011;1606;51.946;10.558;2023-10-31T08:32:26;5.60;;;2.23;;
3189;SDS011;1606;51.946;10.558;2023-10-31T08:34:54;7.10;;;1.97;;
3189;SDS011;1606;51.946;10.558;2023-10-31T08:37:24;5.70;;;1.70;;
3189;SDS011;1606;51.946;10.558;2023-10-31T08:39:51;6.07;;;1.50;;
3189;SDS011;1606;51.946;10.558;2023-10-31T08:42:21;5.20;;;1.60;;
3189;SDS011;1606;51.946;10.558;2023-10-31T08:44:49;5.83;;;1.57;;
3189;SDS011;1606;51.946;10.558;2023-10-31T08:47:17;5.70;;;1.27;;
3189;SDS011;1606;51.946;10.558;2023-10-31T08:49:45;6.27;;;1.20;;
3189;SDS011;1606;51.946;10.558;2023-10-31T08:52:13;5.03;;;1.13;;
3189;SDS011;1606;51.946;10.558;2023-10-31T08:54:42;6.03;;;1.13;;
3189;SDS011;1606;51.946;10.558;2023-10-31T08:57:09;4.90;;;1.30;;
3189;SDS011;1606;51.946;10.558;2023-10-31T08:59:39;5.70;;;1.40;;
3189;SDS011;1606;51.946;10.558;2023-10-31T09:02:07;5.83;;;1.50;;
3189;SDS011;1606;51.946;10.558;2023-10-31T09:04:35;4.90;;;1.30;;
3189;SDS011;1606;51.946;10.558;2023-10-31T09:07:03;5.00;;;1.20;;
3189;SDS011;1606;51.946;10.558;2023-10-31T09:09:31;5.67;;;1.50;;
3189;SDS011;1606;51.946;10.558;2023-10-31T09:11:59;5.70;;;1.43;;
3189;SDS011;1606;51.946;10.558;2023-10-31T09:14:27;5.23;;;1.60;;
3189;SDS011;1606;51.946;10.558;2023-10-31T09:16:56;5.97;;;1.70;;
3189;SDS011;1606;51.946;10.558;2023-10-31T09:19:24;5.67;;;1.57;;
3189;SDS011;1606;51.946;10.558;2023-10-31T09:21:52;5.40;;;1.40;;
3189;SDS011;1606;51.946;10.558;2023-10-31T09:24:22;7.17;;;1.37;;
3189;SDS011;1606;51.946;10.558;2023-10-31T09:26:51;5.00;;;1.33;;
3189;SDS011;1606;51.946;10.558;2023-10-31T09:29:19;5.07;;;1.40;;
3189;SDS011;1606;51.946;10.558;2023-10-31T09:31:56;4.90;;;1.20;;
3189;SDS011;1606;51.946;10.558;2023-10-31T09:34:27;5.40;;;1.50;;
3189;SDS011;1606;51.946;10.558;2023-10-31T09:36:55;6.50;;;1.77;;
3189;SDS011;1606;51.946;10.558;2023-10-31T09:39:23;5.23;;;1.47;;
3189;SDS011;1606;51.946;10.558;2023-10-31T09:41:52;4.87;;;1.30;;
3189;SDS011;1606;51.946;10.558;2023-10-31T09:44:20;5.30;;;1.50;;
3189;SDS011;1606;51.946;10.558;2023-10-31T09:46:49;6.50;;;1.43;;
3189;SDS011;1606;51.946;10.558;2023-10-31T09:49:20;5.47;;;1.90;;
3189;SDS011;1606;51.946;10.558;2023-10-31T09:51:48;5.27;;;1.67;;
3189;SDS011;1606;51.946;10.558;2023-10-31T09:54:17;6.20;;;1.47;;
3189;SDS011;1606;51.946;10.558;2023-10-31T09:56:45;7.70;;;1.90;;
3189;SDS011;1606;51.946;10.558;2023-10-31T09:59:14;5.40;;;1.30;;
3189;SDS011;1606;51.946;10.558;2023-10-31T10:01:42;5.17;;;1.50;;
3189;SDS011;1606;51.946;10.558;2023-10-31T10:04:11;5.67;;;1.50;;
3189;SDS011;1606;51.946;10.558;2023-10-31T10:06:48;4.87;;;1.10;;
3189;SDS011;1606;51.946;10.558;2023-10-31T10:09:18;6.37;;;2.13;;
3189;SDS011;1606;51.946;10.558;2023-10-31T10:11:46;5.27;;;1.50;;
3189;SDS011;1606;51.946;10.558;2023-10-31T10:14:16;4.90;;;1.17;;
3189;SDS011;1606;51.946;10.558;2023-10-31T10:16:48;4.80;;;1.00;;
3189;SDS011;1606;51.946;10.558;2023-10-31T10:19:16;5.10;;;1.50;;
3189;SDS011;1606;51.946;10.558;2023-10-31T10:21:47;4.97;;;1.17;;
3189;SDS011;1606;51.946;10.558;2023-10-31T10:24:17;5.00;;;1.20;;
3189;SDS011;1606;51.946;10.558;2023-10-31T10:26:45;5.10;;;1.07;;
3189;SDS011;1606;51.946;10.558;2023-10-31T10:29:13;5.10;;;1.20;;
3189;SDS011;1606;51.946;10.558;2023-10-31T10:31:42;6.23;;;0.97;;
3189;SDS011;1606;51.946;10.558;2023-10-31T10:34:12;5.23;;;1.40;;
3189;SDS011;1606;51.946;10.558;2023-10-31T10:36:43;4.67;;;1.13;;
3189;SDS011;1606;51.946;10.558;2023-10-31T10:39:16;5.40;;;1.20;;
3189;SDS011;1606;51.946;10.558;2023-10-31T10:41:50;6.30;;;2.23;;
3189;SDS011;1606;51.946;10.558;2023-10-31T10:44:27;6.10;;;1.27;;
3189;SDS011;1606;51.946;10.558;2023-10-31T10:47:01;4.90;;;1.23;;
3189;SDS011;1606;51.946;10.558;2023-10-31T10:49:32;12.13;;;1.27;;
3189;SDS011;1606;51.946;10.558;2023-10-31T10:52:07;5.00;;;1.33;;
3189;SDS011;1606;51.946;10.558;2023-10-31T10:54:44;4.60;;;1.07;;
3189;SDS011;1606;51.946;10.558;2023-10-31T10:57:19;4.73;;;1.40;;
3189;SDS011;1606;51.946;10.558;2023-10-31T10:59:52;5.40;;;1.20;;
3189;SDS011;1606;51.946;10.558;2023-10-31T11:02:23;4.60;;;0.90;;
3189;SDS011;1606;51.946;10.558;2023-10-31T11:04:53;4.60;;;1.00;;
3189;SDS011;1606;51.946;10.558;2023-10-31T11:07:23;4.93;;;0.93;;
3189;SDS011;1606;51.946;10.558;2023-10-31T11:09:53;5.30;;;1.30;;
3189;SDS011;1606;51.946;10.558;2023-10-31T11:12:23;4.97;;;1.10;;
3189;SDS011;1606;51.946;10.558;2023-10-31T11:14:52;7.07;;;1.40;;
3189;SDS011;1606;51.946;10.558;2023-10-31T11:17:22;5.10;;;1.30;;
3189;SDS011;1606;51.946;10.558;2023-10-31T11:19:54;5.10;;;1.20;;
3189;SDS011;1606;51.946;10.558;2023-10-31T11:22:24;7.93;;;1.20;;
3189;SDS011;1606;51.946;10.558;2023-10-31T11:24:52;5.07;;;1.20;;
3189;SDS011;1606;51.946;10.558;2023-10-31T11:27:20;4.80;;;1.30;;
3189;SDS011;1606;51.946;10.558;2023-10-31T11:29:51;4.87;;;1.03;;
3189;SDS011;1606;51.946;10.558;2023-10-31T11:32:22;5.30;;;1.37;;
3189;SDS011;1606;51.946;10.558;2023-10-31T11:34:50;5.50;;;1.50;;
3189;SDS011;1606;51.946;10.558;2023-10-31T11:37:21;5.50;;;1.63;;
3189;SDS011;1606;51.946;10.558;2023-10-31T11:42:49;5.63;;;2.07;;
3189;SDS011;1606;51.946;10.558;2023-10-31T11:45:26;6.13;;;2.30;;
3189;SDS011;1606;51.946;10.558;2023-10-31T11:47:56;5.57;;;1.93;;
3189;SDS011;1606;51.946;10.558;2023-10-31T11:50:24;6.47;;;2.13;;
3189;SDS011;1606;51.946;10.558;2023-10-31T11:53:04;6.50;;;2.10;;
3189;SDS011;1606;51.946;10.558;2023-10-31T11:55:34;5.53;;;2.47;;
3189;SDS011;1606;51.946;10.558;2023-10-31T11:58:12;6.60;;;2.70;;
3189;SDS011;1606;51.946;10.558;2023-10-31T12:00:41;7.83;;;2.50;;
3189;SDS011;1606;51.946;10.558;2023-10-31T12:03:11;5.77;;;2.23;;
3189;SDS011;1606;51.946;10.558;2023-10-31T12:05:50;5.83;;;2.27;;
3189;SDS011;1606;51.946;10.558;2023-10-31T12:08:30;5.40;;;2.20;;
3189;SDS011;1606;51.946;10.558;2023-10-31T12:11:03;6.00;;;2.53;;
3189;SDS011;1606;51.946;10.558;2023-10-31T12:13:33;6.10;;;2.60;;
3189;SDS011;1606;51.946;10.558;2023-10-31T12:16:01;6.03;;;2.33;;
3189;SDS011;1606;51.946;10.558;2023-10-31T12:18:38;7.33;;;3.27;;
3189;SDS011;1606;51.946;10.558;2023-10-31T12:21:11;5.30;;;2.00;;
3189;SDS011;1606;51.946;10.558;2023-10-31T12:23:42;6.33;;;2.80;;
3189;SDS011;1606;51.946;10.558;2023-10-31T12:26:12;8.27;;;3.00;;
3189;SDS011;1606;51.946;10.558;2023-10-31T12:28:50;5.70;;;2.37;;
3189;SDS011;1606;51.946;10.558;2023-10-31T12:31:48;6.00;;;2.53;;
3189;SDS011;1606;51.946;10.558;2023-10-31T12:34:22;5.63;;;2.57;;
3189;SDS011;1606;51.946;10.558;2023-10-31T12:36:55;6.70;;;2.83;;
3189;SDS011;1606;51.946;10.558;2023-10-31T12:39:31;6.07;;;2.77;;
3189;SDS011;1606;51.946;10.558;2023-10-31T12:42:03;5.83;;;2.53;;
3189;SDS011;1606;51.946;10.558;2023-10-31T12:44:38;6.23;;;2.70;;
3189;SDS011;1606;51.946;10.558;2023-10-31T12:47:09;6.33;;;2.83;;
3189;SDS011;1606;51.946;10.558;2023-10-31T12:49:40;5.90;;;2.27;;
3189;SDS011;1606;51.946;10.558;2023-10-31T12:52:12;7.50;;;2.73;;
3189;SDS011;1606;51.946;10.558;2023-10-31T12:54:46;6.10;;;2.80;;
3189;SDS011;1606;51.946;10.558;2023-10-31T12:57:17;6.10;;;3.00;;
3189;SDS011;1606;51.946;10.558;2023-10-31T12:59:47;7.10;;;2.40;;
3189;SDS011;1606;51.946;10.558;2023-10-31T13:02:20;5.80;;;2.47;;
3189;SDS011;1606;51.946;10.558;2023-10-31T13:04:48;7.20;;;2.43;;
3189;SDS011;1606;51.946;10.558;2023-10-31T13:07:20;6.13;;;2.30;;
3189;SDS011;1606;51.946;10.558;2023-10-31T13:10:00;8.20;;;2.37;;
3189;SDS011;1606;51.946;10.558;2023-10-31T13:12:31;7.07;;;2.63;;
3189;SDS011;1606;51.946;10.558;2023-10-31T13:15:04;6.33;;;2.30;;
3189;SDS011;1606;51.946;10.558;2023-10-31T13:17:37;6.10;;;2.47;;
3189;SDS011;1606;51.946;10.558;2023-10-31T13:20:08;6.27;;;2.33;;
3189;SDS011;1606;51.946;10.558;2023-10-31T13:22:39;8.80;;;2.53;;
3189;SDS011;1606;51.946;10.558;2023-10-31T13:25:10;7.20;;;2.67;;
3189;SDS011;1606;51.946;10.558;2023-10-31T13:27:41;7.23;;;2.03;;
3189;SDS011;1606;51.946;10.558;2023-10-31T13:30:13;6.67;;;2.67;;
3189;SDS011;1606;51.946;10.558;2023-10-31T13:32:46;6.20;;;2.50;;
3189;SDS011;1606;51.946;10.558;2023-10-31T13:35:20;5.40;;;2.13;;
3189;SDS011;1606;51.946;10.558;2023-10-31T13:37:48;8.33;;;2.20;;
3189;SDS011;1606;51.946;10.558;2023-10-31T13:40:21;5.33;;;1.87;;
3189;SDS011;1606;51.946;10.558;2023-10-31T13:42:52;6.50;;;2.60;;
3189;SDS011;1606;51.946;10.558;2023-10-31T13:45:23;6.90;;;2.60;;
3189;SDS011;1606;51.946;10.558;2023-10-31T13:47:51;5.50;;;2.20;;
3189;SDS011;1606;51.946;10.558;2023-10-31T13:50:21;6.57;;;2.40;;
3189;SDS011;1606;51.946;10.558;2023-10-31T13:52:50;6.10;;;2.57;;
3189;SDS011;1606;51.946;10.558;2023-10-31T13:55:19;5.37;;;2.17;;
3189;SDS011;1606;51.946;10.558;2023-10-31T13:57:51;6.30;;;2.40;;
3189;SDS011;1606;51.946;10.558;2023-10-31T14:00:19;6.23;;;2.70;;
3189;SDS011;1606;51.946;10.558;2023-10-31T14:02:47;5.87;;;2.30;;
3189;SDS011;1606;51.946;10.558;2023-10-31T14:05:15;5.53;;;2.00;;
3189;SDS011;1606;51.946;10.558;2023-10-31T14:07:44;6.60;;;2.90;;
3189;SDS011;1606;51.946;10.558;2023-10-31T14:10:14;5.70;;;2.20;;
3189;SDS011;1606;51.946;10.558;2023-10-31T14:12:45;8.73;;;2.77;;
3189;SDS011;1606;51.946;10.558;2023-10-31T14:15:18;5.73;;;2.30;;
3189;SDS011;1606;51.946;10.558;2023-10-31T14:17:48;6.00;;;2.50;;
3189;SDS011;1606;51.946;10.558;2023-10-31T14:20:17;6.63;;;2.40;;
3189;SDS011;1606;51.946;10.558;2023-10-31T14:22:48;7.90;;;2.10;;
3189;SDS011;1606;51.946;10.558;2023-10-31T14:25:19;6.10;;;3.03;;
3189;SDS011;1606;51.946;10.558;2023-10-31T14:27:47;7.80;;;2.40;;
3189;SDS011;1606;51.946;10.558;2023-10-31T14:30:15;6.03;;;1.93;;
3189;SDS011;1606;51.946;10.558;2023-10-31T14:32:44;6.10;;;2.40;;
3189;SDS011;1606;51.946;10.558;2023-10-31T14:35:12;6.33;;;2.20;;
3189;SDS011;1606;51.946;10.558;2023-10-31T14:37:40;9.30;;;2.60;;
3189;SDS011;1606;51.946;10.558;2023-10-31T14:40:10;5.83;;;2.43;;
3189;SDS011;1606;51.946;10.558;2023-10-31T14:42:38;5.80;;;2.30;;
3189;SDS011;1606;51.946;10.558;2023-10-31T14:45:06;6.23;;;2.50;;
3189;SDS011;1606;51.946;10.558;2023-10-31T14:47:36;8.00;;;2.83;;
3189;SDS011;1606;51.946;10.558;2023-10-31T14:50:06;6.33;;;2.57;;
3189;SDS011;1606;51.946;10.558;2023-10-31T14:52:35;8.10;;;2.80;;
3189;SDS011;1606;51.946;10.558;2023-10-31T14:55:04;7.77;;;2.93;;
3189;SDS011;1606;51.946;10.558;2023-10-31T14:57:37;6.30;;;2.87;;
3189;SDS011;1606;51.946;10.558;2023-10-31T15:00:05;8.57;;;2.80;;
3189;SDS011;1606;51.946;10.558;2023-10-31T15:02:34;7.20;;;2.50;;
3189;SDS011;1606;51.946;10.558;2023-10-31T15:05:05;7.83;;;3.00;;
3189;SDS011;1606;51.946;10.558;2023-10-31T15:07:34;9.23;;;3.53;;
3189;SDS011;1606;51.946;10.558;2023-10-31T15:10:02;6.20;;;3.10;;
3189;SDS011;1606;51.946;10.558;2023-10-31T15:12:30;7.50;;;3.20;;
3189;SDS011;1606;51.946;10.558;2023-10-31T15:14:58;6.90;;;3.50;;